Latest Weather Observations for Moorabbin Airport

IDV60901

Issued at 2:51 pm EST Sunday 24 July 2016 (issued every 10 minutes, with the page automatically refreshed every 10 minutes)

About weather observations | Map of Melbourne area stations | Latest observations for Melbourne area | Other Formats
Station Details ID: 086077 Name: MOORABBIN AIRPORT Lat: -37.98 Lon: 145.10 Height: 12.1 m
Data from the previous 72 hours. | See also: Recent months at Moorabbin Airport
Date/Time
EST
Temp
°C
App
Temp
°C
Dew
Point
°C
Rel
Hum
%
Delta-T
°C
Wind Press
QNH
hPa
Press
MSL
hPa
Rain since
9am
mm
Dir  Spd
km/h
Gust
km/h
Spd
kts
Gust
kts
24/02:30pm 10.9 2.2 4.1 63 3.0 N 39 56 21 30 1006.2 1006.2 0.0
24/02:15pm 10.6 3.2 4.1 64 2.9 N 32 50 17 27 1006.5 1006.5 0.0
24/02:00pm 10.5 2.1 3.5 62 3.1 N 37 52 20 28 1006.7 1006.7 0.0
24/01:54pm 11.0 3.4 4.0 62 3.1 NNW 33 52 18 28 1006.5 1006.5 0.0
24/01:30pm 10.3 1.9 3.6 63 2.9 N 37 52 20 28 1006.9 1006.9 0.0
24/01:03pm 10.4 1.9 3.4 62 3.1 NNW 37 56 20 30 1007.3 1007.3 0.0
24/01:00pm 10.5 1.7 3.8 63 3.0 NNW 39 56 21 30 1007.4 1007.4 0.0
24/12:51pm 10.4 2.3 3.4 62 3.1 NNW 35 54 19 29 1007.4 1007.4 0.0
24/12:30pm 10.3 1.8 3.3 62 3.0 NNW 37 50 20 27 1007.8 1007.8 0.0
24/12:11pm 10.4 2.3 3.4 62 3.1 NNW 35 54 19 29 1008.3 1008.3 0.0
24/12:00pm 10.3 2.3 3.6 63 2.9 N 35 50 19 27 1008.4 1008.4 0.0
24/11:30am 9.6 2.5 3.8 67 2.5 N 30 41 16 22 1009.0 1009.0 0.0
24/11:00am 9.0 1.9 3.4 68 2.4 N 30 41 16 22 1009.8 1009.8 0.0
24/10:30am 8.8 1.3 3.4 69 2.3 N 32 43 17 23 1009.9 1009.9 0.0
24/10:00am 8.7 1.6 3.7 71 2.2 N 30 39 16 21 1009.9 1009.9 0.0
24/09:30am 7.6 0.8 2.9 72 2.0 N 28 35 15 19 1010.2 1010.2 0.0
24/09:00am 6.8 1.4 2.7 75 1.7 N 20 28 11 15 1010.5 1010.5 1.4
24/08:30am 6.1 0.3 2.2 76 1.6 N 22 28 12 15 1010.6 1010.6 1.4
24/08:00am 5.5 -0.3 2.2 79 1.3 N 22 28 12 15 1010.6 1010.6 1.4
24/07:30am 5.0 -0.9 1.8 80 1.3 N 22 30 12 16 1010.7 1010.7 1.4
24/07:00am 5.1 -0.4 1.9 80 1.3 N 20 26 11 14 1010.7 1010.7 1.4
24/06:30am 5.5 0.0 2.0 78 1.4 N 20 28 11 15 1010.5 1010.5 1.4
24/06:00am 5.0 -0.3 1.7 79 1.3 N 19 26 10 14 1010.7 1010.7 1.4
24/05:30am 5.1 -0.2 1.6 78 1.4 N 19 26 10 14 1010.9 1010.9 1.4
24/05:00am 5.5 0.6 2.0 78 1.4 NNW 17 24 9 13 1011.2 1011.2 1.4
24/04:30am 5.0 0.1 1.7 79 1.3 NNW 17 20 9 11 1011.6 1011.6 1.4
24/04:00am 5.0 -0.4 1.5 78 1.4 NNW 19 24 10 13 1011.7 1011.7 1.4
24/03:30am 5.1 0.2 1.9 80 1.3 N 17 24 9 13 1011.8 1011.8 1.4
24/03:00am 4.7 0.5 1.9 82 1.1 N 13 15 7 8 1011.9 1011.9 1.4
24/02:30am 4.6 1.2 2.0 83 1.0 NNW 9 11 5 6 1012.1 1012.1 1.4
24/02:00am 4.9 1.5 1.9 81 1.2 N 9 11 5 6 1012.2 1012.2 1.4
24/01:30am 5.6 1.5 2.4 80 1.3 NNW 13 17 7 9 1012.2 1012.2 1.4
24/01:00am 5.9 2.2 2.4 78 1.4 NNW 11 13 6 7 1012.2 1012.2 1.4
24/12:30am 6.4 2.4 2.9 78 1.5 NNW 13 17 7 9 1012.4 1012.4 1.4
24/12:00am 7.1 2.8 3.3 77 1.6 NW 15 20 8 11 1012.6 1012.6 1.4
 
Date/Time
EST
Temp
°C
App
Temp
°C
Dew
Point
°C
Rel
Hum
%
Delta-T
°C
Wind Press
QNH
hPa
Press
MSL
hPa
Rain since
9am
mm
Dir  Spd
km/h
Gust
km/h
Spd
kts
Gust
kts
23/11:30pm 7.3 3.4 3.5 77 1.6 NW 13 15 7 8 1012.7 1012.7 1.4
23/11:00pm 7.6 3.0 3.6 76 1.7 NW 17 22 9 12 1012.8 1012.8 1.4
23/10:30pm 7.9 2.7 3.6 74 1.8 NW 20 32 11 17 1012.6 1012.6 1.4
23/10:00pm 7.9 2.9 3.8 75 1.8 NW 19 30 10 16 1012.6 1012.6 1.4
23/09:30pm 8.2 3.1 4.0 75 1.8 WNW 20 35 11 19 1012.6 1012.6 1.4
23/09:00pm 8.2 2.3 3.9 74 1.9 WNW 24 39 13 21 1012.3 1012.3 1.4
23/08:30pm 8.0 2.1 3.8 75 1.8 WNW 24 37 13 20 1012.2 1012.2 1.4
23/08:00pm 7.8 2.6 3.8 76 1.7 WNW 20 32 11 17 1011.9 1011.9 1.4
23/07:30pm 8.1 2.6 3.9 75 1.8 WNW 22 35 12 19 1011.9 1011.9 1.4
23/07:00pm 8.2 2.8 4.4 77 1.7 WNW 22 33 12 18 1011.5 1011.5 1.4
23/06:30pm 7.9 2.8 4.1 77 1.6 WNW 20 35 11 19 1011.1 1011.1 1.4
23/06:00pm 7.5 0.9 4.1 79 1.5 WNW 28 39 15 21 1010.6 1010.6 1.4
23/05:57pm 7.6 1.0 4.2 79 1.5 WNW 28 39 15 21 1010.6 1010.6 1.4
23/05:50pm 7.8 1.2 4.4 79 1.5 WNW 28 46 15 25 1010.5 1010.5 1.4
23/05:46pm 7.9 1.7 4.3 78 1.6 W 26 46 14 25 1010.5 1010.5 1.4
23/05:30pm 8.7 3.6 3.9 72 2.1 WNW 20 30 11 16 1010.3 1010.3 0.8
23/05:00pm 8.6 2.7 3.8 72 2.1 WNW 24 41 13 22 1009.7 1009.7 0.8
23/04:30pm 8.6 1.9 3.6 71 2.2 WNW 28 41 15 22 1009.3 1009.3 0.8
23/04:00pm 9.0 3.1 4.0 71 2.2 WNW 24 43 13 23 1009.0 1009.0 0.8
23/03:30pm 9.0 1.8 3.2 67 2.5 W 30 46 16 25 1008.7 1008.7 0.8
23/03:00pm 9.1 3.3 4.5 73 2.0 W 24 33 13 18 1008.3 1008.3 0.8
23/02:30pm 9.1 2.4 3.9 70 2.3 W 28 43 15 23 1007.7 1007.7 0.8
23/02:00pm 9.5 3.4 4.7 72 2.1 W 26 39 14 21 1007.4 1007.4 0.8
23/01:54pm 9.3 4.6 5.9 79 1.6 W 20 33 11 18 1007.2 1007.2 0.8
23/01:37pm 7.1 -0.4 3.5 78 1.5 WSW 32 52 17 28 1007.4 1007.4 0.6
23/01:36pm 7.1 -0.4 3.5 78 1.5 WSW 32 52 17 28 1007.4 1007.4 0.6
23/01:30pm 7.8 0.9 2.5 69 2.2 W 28 43 15 23 1007.2 1007.2 0.2
23/01:00pm 9.7 2.5 3.2 64 2.8 WNW 30 44 16 24 1006.6 1006.6 0.0
23/12:30pm 9.7 2.1 2.6 61 3.0 WNW 32 52 17 28 1006.6 1006.6 0.0
23/12:00pm 9.0 1.3 2.3 63 2.8 WNW 32 50 17 27 1006.6 1006.6 0.0
23/11:53am 9.0 1.6 2.1 62 2.9 WNW 30 50 16 27 1006.6 1006.6 0.0
23/11:30am 9.0 1.7 2.3 63 2.8 WNW 30 46 16 25 1006.7 1006.7 0.0
23/11:01am 9.0 1.2 1.4 59 3.1 WNW 32 50 17 27 1006.5 1006.5 0.0
23/11:00am 9.2 1.2 1.9 60 3.1 WNW 33 50 18 27 1006.5 1006.5 0.0
23/10:34am 9.3 2.3 1.7 59 3.2 WNW 28 50 15 27 1006.0 1006.0 0.0
23/10:30am 9.2 1.7 1.4 58 3.2 W 30 44 16 24 1006.0 1006.0 0.0
23/10:01am 9.2 2.0 0.9 56 3.4 WNW 28 46 15 25 1005.2 1005.2 0.0
23/10:00am 9.2 2.4 0.9 56 3.4 WNW 26 46 14 25 1005.2 1005.2 0.0
23/09:30am 9.3 2.9 1.0 56 3.4 W 24 37 13 20 1004.5 1004.5 0.0
23/09:00am 9.0 1.2 1.4 59 3.1 W 32 50 17 27 1003.9 1003.9 17.8
23/08:52am 8.9 1.9 1.8 61 2.9 W 28 46 15 25 1003.7 1003.7 17.8
23/08:30am 8.5 1.7 2.9 68 2.4 WNW 28 41 15 22 1003.1 1003.1 17.8
23/08:00am 8.1 2.2 3.9 75 1.8 W 24 35 13 19 1002.6 1002.6 17.8
23/07:30am 8.2 1.5 3.9 74 1.9 W 28 39 15 21 1002.0 1002.0 17.8
23/07:00am 8.4 1.9 4.6 77 1.7 W 28 41 15 22 1001.1 1001.1 17.8
23/06:34am 8.4 2.0 5.2 80 1.4 W 28 50 15 27 1000.4 1000.4 17.8
23/06:30am 8.4 2.0 5.2 80 1.4 W 28 41 15 22 1000.2 1000.2 17.8
23/06:00am 8.6 1.2 4.8 77 1.7 W 33 56 18 30 999.5 999.5 17.8
23/05:30am 8.8 1.9 4.8 76 1.8 W 30 48 16 26 998.6 998.6 17.8
23/05:22am 8.8 2.0 5.0 77 1.7 W 30 48 16 26 998.5 998.5 17.8
23/05:00am 8.7 1.5 5.1 78 1.6 WNW 32 46 17 25 998.0 998.0 17.8
23/04:36am 8.6 1.5 5.4 80 1.4 WNW 32 50 17 27 997.2 997.2 17.8
23/04:30am 8.7 2.4 5.6 81 1.4 WNW 28 44 15 24 997.2 997.2 17.8
23/04:11am 8.6 2.3 5.5 81 1.4 W 28 46 15 25 997.0 997.0 17.8
23/04:00am 8.6 2.6 5.4 80 1.5 W 26 43 14 23 996.7 996.7 17.8
23/03:33am 8.6 1.9 5.5 81 1.4 W 30 48 16 26 996.1 996.1 17.8
23/03:30am 8.5 1.8 5.6 82 1.3 W 30 44 16 24 996.2 996.2 17.8
23/03:25am 8.4 1.7 5.7 83 1.2 W 30 48 16 26 996.0 996.0 17.8
23/03:23am 8.4 1.2 5.9 84 1.1 W 33 50 18 27 995.9 995.9 17.8
23/03:00am 8.4 -0.1 5.0 79 1.5 WNW 39 65 21 35 995.4 995.4 17.6
23/02:59am 8.4 -0.5 5.0 79 1.5 WNW 41 65 22 35 995.3 995.3 17.6
23/02:30am 9.7 1.1 4.7 71 2.2 WNW 39 63 21 34 994.0 994.0 17.6
23/02:00am 10.1 3.1 4.0 66 2.7 NW 30 50 16 27 993.5 993.5 17.6
23/01:33am 9.5 2.9 4.3 70 2.3 NW 28 46 15 25 992.9 992.9 17.6
23/01:30am 9.5 2.5 4.3 70 2.3 NW 30 46 16 25 992.8 992.8 17.6
23/01:04am 10.1 3.0 5.7 74 2.0 NW 32 59 17 32 992.6 992.6 17.6
23/01:00am 10.3 3.3 6.1 75 2.0 NNW 32 44 17 24 992.7 992.7 17.6
23/12:30am 8.7 3.9 5.8 82 1.3 NW 20 32 11 17 993.0 993.0 17.6
23/12:00am 8.9 3.5 6.2 83 1.3 NW 24 33 13 18 992.8 992.8 17.6
 
Date/Time
EST
Temp
°C
App
Temp
°C
Dew
Point
°C
Rel
Hum
%
Delta-T
°C
Wind Press
QNH
hPa
Press
MSL
hPa
Rain since
9am
mm
Dir  Spd
km/h
Gust
km/h
Spd
kts
Gust
kts
22/11:52pm 8.8 3.8 6.4 85 1.1 NW 22 35 12 19 992.9 992.9 17.6
22/11:39pm 9.1 2.7 7.1 87 0.9 WNW 30 54 16 29 993.5 993.5 17.2
22/11:31pm 9.2 5.4 7.6 90 0.8 WNW 17 37 9 20 993.6 993.6 16.6
22/11:30pm 9.2 5.4 7.6 90 0.8 WNW 17 30 9 16 993.7 993.7 16.6
22/11:00pm 9.6 5.6 8.2 91 0.7 WNW 19 26 10 14 993.5 993.5 15.2
22/10:50pm 9.4 6.1 8.0 91 0.7 WNW 15 24 8 13 993.6 993.6 15.0
22/10:30pm 8.9 3.2 6.9 87 0.9 NW 26 46 14 25 993.6 993.6 14.2
22/10:14pm 10.8 6.6 8.2 84 1.3 NW 20 30 11 16 993.4 993.4 4.2
22/10:00pm 11.4 7.3 8.8 84 1.3 NNW 20 30 11 16 993.2 993.2 2.8
22/09:30pm 11.2 7.8 7.5 78 1.8 N 15 20 8 11 993.5 993.5 2.4
22/09:00pm 11.7 8.4 6.6 71 2.4 NW 13 20 7 11 994.1 994.1 2.4
22/08:30pm 11.4 7.8 6.9 74 2.1 NNW 15 20 8 11 994.5 994.5 2.4
22/08:00pm 11.4 7.9 7.3 76 2.0 NNW 15 22 8 12 994.5 994.5 2.4
22/07:30pm 11.0 8.0 7.9 81 1.5 NW 13 19 7 10 995.0 995.0 2.4
22/07:00pm 10.9 8.0 8.1 83 1.4 NW 13 19 7 10 995.2 995.2 2.4
22/06:30pm 10.8 7.2 8.4 85 1.2 NW 17 24 9 13 995.1 995.1 2.4
22/06:21pm 10.7 6.5 8.1 84 1.3 WNW 20 32 11 17 995.5 995.5 2.4
22/06:02pm 11.5 6.4 7.6 77 1.9 W 24 35 13 19 995.7 995.7 1.8
22/06:00pm 12.0 6.9 7.5 74 2.2 W 24 35 13 19 995.8 995.8 1.6
22/05:30pm 13.0 9.0 8.1 72 2.4 WNW 19 30 10 16 995.1 995.1 1.0
22/05:00pm 12.7 8.6 7.8 72 2.4 NW 19 28 10 15 994.6 994.6 1.0
22/04:30pm 12.9 8.9 8.2 73 2.3 NW 19 26 10 14 994.8 994.8 1.0
22/04:00pm 13.0 8.9 8.7 75 2.2 NW 20 30 11 16 994.7 994.7 1.0
22/03:30pm 12.5 8.5 9.0 79 1.8 NW 20 33 11 18 994.5 994.5 1.0
22/03:00pm 11.7 6.5 8.9 83 1.4 WNW 26 35 14 19 995.0 995.0 1.0
22/02:54pm 11.6 6.1 9.0 84 1.3 WNW 28 39 15 21 995.2 995.2 1.0
22/02:43pm 11.5 4.9 8.7 83 1.4 WNW 33 57 18 31 995.0 995.0 0.8
22/02:30pm 11.5 5.0 8.2 80 1.6 W 32 44 17 24 995.1 995.1 0.6
22/02:26pm 11.2 4.3 7.3 77 1.9 W 33 52 18 28 995.1 995.1 0.4
22/02:12pm 13.6 5.4 6.7 63 3.3 W 39 67 21 36 995.0 995.0 0.0
22/02:00pm 17.1 10.4 7.5 53 4.9 NW 32 50 17 27 993.9 993.9 0.0
22/01:53pm 17.7 11.6 8.3 54 4.8 NW 30 50 16 27 994.0 994.0 0.0
22/01:30pm 17.4 10.9 8.3 55 4.7 NW 32 46 17 25 994.1 994.1 0.0
22/01:00pm 16.9 10.2 8.3 57 4.4 NW 33 56 18 30 994.0 994.0 0.0
22/12:30pm 16.5 10.1 8.7 60 4.0 NNW 32 50 17 27 994.5 994.5 0.0
22/12:24pm 16.4 10.3 8.4 59 4.1 NNW 30 50 16 27 994.2 994.2 0.0
22/12:00pm 16.1 9.7 8.6 61 3.9 NW 32 44 17 24 994.8 994.8 0.0
22/11:48am 15.9 9.8 8.4 61 3.8 NW 30 48 16 26 994.8 994.8 0.0
22/11:30am 15.6 9.5 8.4 62 3.6 NW 30 43 16 23 995.4 995.4 0.0
22/11:00am 16.0 10.0 8.7 62 3.8 NW 30 52 16 28 995.9 995.9 0.0
22/10:56am 16.1 10.1 8.6 61 3.8 NW 30 52 16 28 995.7 995.7 0.0
22/10:30am 16.0 10.5 9.2 64 3.5 NW 28 43 15 23 995.8 995.8 0.0
22/10:00am 16.1 10.8 9.8 66 3.3 NW 28 43 15 23 996.1 996.1 0.0
22/09:30am 16.8 12.5 10.6 67 3.3 NNW 24 41 13 22 996.2 996.2 0.0
22/09:00am 16.3 13.2 11.7 74 2.5 NW 19 32 10 17 996.6 996.6 7.0
22/08:30am 16.4 13.5 12.8 79 2.0 NW 20 32 11 17 996.6 996.6 -
22/08:00am 16.3 14.2 15.2 93 0.6 NNW 20 30 11 16 996.6 996.6 -
22/07:30am 16.0 13.5 15.2 95 0.5 NNW 22 30 12 16 996.9 996.9 -
22/07:00am 15.8 12.9 15.2 96 0.3 N 24 39 13 21 997.0 997.0 -
22/06:49am 15.5 11.8 14.9 96 0.3 N 28 43 15 23 997.3 997.3 -
22/06:30am 15.5 10.9 14.5 94 0.6 N 32 46 17 25 997.2 997.2 -
22/06:04am 15.6 10.3 14.3 92 0.7 NNW 35 54 19 29 997.5 997.5 -
22/06:03am 15.6 9.9 14.1 91 0.8 NNW 37 54 20 29 997.5 997.5 -
22/06:00am 15.8 9.8 14.3 91 0.9 N 39 54 21 29 997.3 997.3 -
22/05:30am 16.0 9.9 14.2 89 1.0 N 39 54 21 29 997.0 997.0 -
22/05:00am 16.2 9.1 13.5 84 1.5 N 43 57 23 31 997.5 997.5 -
22/04:30am 16.3 8.6 13.2 82 1.7 N 46 65 25 35 997.7 997.7 -
22/04:02am 16.7 8.8 12.7 77 2.2 N 46 65 25 35 998.9 998.9 -
22/04:00am 16.7 8.4 12.7 77 2.2 N 48 65 26 35 998.8 998.8 -
22/03:30am 16.9 10.1 11.8 72 2.8 N 39 61 21 33 999.7 999.7 -
22/03:27am 16.7 10.5 11.4 71 2.9 N 35 57 19 31 999.9 999.9 -
22/03:00am 16.5 9.7 10.8 69 3.1 N 37 50 20 27 1000.6 1000.6 0.0
22/02:30am 15.9 9.9 10.9 72 2.7 N 33 46 18 25 1001.4 1001.4 -
22/02:27am 16.1 10.2 11.1 72 2.7 N 33 52 18 28 1001.5 1001.5 -
22/02:00am 16.2 9.1 10.9 71 2.8 N 39 48 21 26 1002.1 1002.1 -
22/01:30am 16.2 8.1 10.7 70 2.9 N 44 54 24 29 1002.5 1002.5 -
22/01:00am 16.3 8.3 11.0 71 2.9 N 44 65 24 35 1003.2 1003.2 -
22/12:31am 16.5 9.5 11.2 71 2.9 N 39 59 21 32 1004.3 1004.3 -
22/12:30am 16.5 9.5 11.2 71 2.9 N 39 50 21 27 1004.4 1004.4 -
22/12:15am 16.4 9.0 11.1 71 2.8 N 41 59 22 32 1004.3 1004.3 -
22/12:00am 16.1 9.0 10.8 71 2.8 N 39 54 21 29 1005.1 1005.1 -
 
Date/Time
EST
Temp
°C
App
Temp
°C
Dew
Point
°C
Rel
Hum
%
Delta-T
°C
Wind Press
QNH
hPa
Press
MSL
hPa
Rain since
9am
mm
Dir  Spd
km/h
Gust
km/h
Spd
kts
Gust
kts
21/11:43pm 16.4 10.1 10.9 70 2.9 N 35 57 19 31 1005.4 1005.4 -
21/11:30pm 16.1 10.3 10.8 71 2.8 N 32 48 17 26 1005.8 1005.8 -
21/11:00pm 15.2 9.3 10.6 74 2.4 N 32 43 17 23 1006.4 1006.4 -
21/10:30pm 15.3 9.3 10.9 75 2.3 N 33 43 18 23 1006.5 1006.5 -
21/10:00pm 15.1 9.3 10.7 75 2.3 N 32 41 17 22 1006.9 1006.9 -
21/09:30pm 14.8 8.7 10.4 75 2.3 N 33 44 18 24 1007.6 1007.6 -
21/09:00pm 14.7 8.6 10.3 75 2.3 N 33 46 18 25 1008.2 1008.2 0.0
21/08:30pm 14.7 9.1 10.1 74 2.4 N 30 41 16 22 1008.7 1008.7 -
21/08:00pm 14.7 8.5 10.1 74 2.4 N 33 44 18 24 1008.9 1008.9 -
21/07:30pm 14.9 8.4 10.3 74 2.4 N 35 48 19 26 1009.1 1009.1 -
21/07:00pm 15.0 9.0 10.2 73 2.5 N 32 39 17 21 1009.6 1009.6 -
21/06:30pm 15.2 9.1 10.4 73 2.5 N 33 43 18 23 1009.7 1009.7 -
21/06:00pm 15.5 10.0 10.5 72 2.6 N 30 39 16 21 1010.2 1010.2 -
21/05:30pm 15.6 10.1 10.6 72 2.6 N 30 43 16 23 1010.1 1010.1 -
21/05:10pm 15.7 9.8 10.5 71 2.7 N 32 50 17 27 1010.3 1010.3 -
21/05:00pm 16.0 9.5 10.5 70 2.9 N 35 50 19 27 1010.1 1010.1 -
21/04:30pm 17.0 11.6 10.8 67 3.3 N 30 44 16 24 1010.2 1010.2 -
21/04:00pm 17.0 11.2 10.8 67 3.3 N 32 41 17 22 1010.6 1010.6 -
21/03:30pm 17.3 12.7 11.1 67 3.3 N 26 37 14 20 1010.8 1010.8 -
21/03:00pm 17.4 12.5 11.2 67 3.4 N 28 37 15 20 1011.1 1011.1 1.0

Latest Capital City Observations: Canberra | Sydney | Melbourne | Brisbane | Adelaide | Perth | Hobart | Darwin

Other Formats:

Comma delimited format used in spreadsheet applications
http://www.bom.gov.au/fwo/IDV60901/IDV60901.94870.axf

JavaScript Object Notation format (JSON) in row-major order
http://www.bom.gov.au/fwo/IDV60901/IDV60901.94870.json